createdAt,value
2019-05-22T00:00:29.818Z,12.40
2019-05-22T00:03:03.071Z,11.03
2019-05-22T00:05:33.115Z,16.47
2019-05-22T00:08:03.383Z,12.90
2019-05-22T00:10:33.916Z,13.83
2019-05-22T00:13:04.193Z,13.27
2019-05-22T00:15:34.716Z,10.77
2019-05-22T00:18:06.843Z,13.87
2019-05-22T00:20:36.104Z,11.90
2019-05-22T00:23:07.844Z,14.07
2019-05-22T00:25:38.090Z,12.80
2019-05-22T00:28:06.998Z,12.47
2019-05-22T00:30:40.565Z,12.77
2019-05-22T00:33:10.537Z,11.87
2019-05-22T00:35:41.685Z,11.73
2019-05-22T00:38:11.718Z,11.83
2019-05-22T00:40:44.776Z,11.43
2019-05-22T00:43:17.182Z,14.70
2019-05-22T00:45:48.918Z,10.93
2019-05-22T00:48:21.055Z,14.53
2019-05-22T00:51:04.219Z,12.77
2019-05-22T00:53:49.799Z,9.63
2019-05-22T00:56:29.402Z,7.97
2019-05-22T00:59:00.320Z,11.87
2019-05-22T01:01:39.771Z,11.03
2019-05-22T01:04:09.890Z,10.93
2019-05-22T01:06:38.771Z,9.90
2019-05-22T01:09:10.017Z,11.83
2019-05-22T01:11:40.265Z,11.73
2019-05-22T01:14:09.483Z,12.33
2019-05-22T01:16:39.635Z,11.40
2019-05-22T01:19:08.399Z,12.27
2019-05-22T01:21:38.316Z,12.37
2019-05-22T01:24:07.753Z,17.53
2019-05-22T01:26:36.863Z,12.37
2019-05-22T01:29:08.247Z,15.00
2019-05-22T01:31:41.233Z,14.50
2019-05-22T01:34:15.929Z,16.77
2019-05-22T01:36:49.562Z,15.43
2019-05-22T01:39:25.762Z,18.27
2019-05-22T01:41:57.090Z,22.30
2019-05-22T01:44:27.295Z,25.53
2019-05-22T01:46:58.281Z,21.47
2019-05-22T01:49:27.617Z,17.83
2019-05-22T01:51:56.148Z,22.03
2019-05-22T01:54:25.845Z,22.17
2019-05-22T01:56:56.382Z,19.50
2019-05-22T01:59:26.535Z,22.37
2019-05-22T02:01:56.804Z,24.23
2019-05-22T02:04:26.827Z,27.03
2019-05-22T02:06:57.106Z,25.43
2019-05-22T02:09:33.430Z,19.47
2019-05-22T02:12:12.214Z,25.33
2019-05-22T02:14:44.536Z,23.73
2019-05-22T02:17:15.604Z,24.43
2019-05-22T02:19:44.859Z,29.87
2019-05-22T02:22:15.218Z,22.90
2019-05-22T02:24:45.286Z,23.47
2019-05-22T02:27:14.483Z,27.87
2019-05-22T02:29:44.676Z,23.50
2019-05-22T02:32:13.782Z,33.63
2019-05-22T02:34:44.127Z,27.30
2019-05-22T02:37:13.108Z,31.70
2019-05-22T02:39:42.903Z,33.03
2019-05-22T02:42:20.560Z,26.93
2019-05-22T02:44:50.237Z,32.27
2019-05-22T02:47:21.559Z,29.50
2019-05-22T02:49:51.594Z,27.73
2019-05-22T02:52:22.093Z,29.90
2019-05-22T02:54:50.665Z,27.27
2019-05-22T02:57:19.207Z,28.47
2019-05-22T02:59:47.812Z,27.77
2019-05-22T03:02:18.076Z,25.93
2019-05-22T03:04:56.045Z,26.87
2019-05-22T03:07:26.645Z,25.77
2019-05-22T03:09:55.537Z,28.33
2019-05-22T03:12:26.540Z,27.10
2019-05-22T03:14:55.069Z,28.27
2019-05-22T03:17:30.333Z,27.93
2019-05-22T03:20:01.122Z,33.27
2019-05-22T03:22:42.101Z,28.07
2019-05-22T03:25:13.155Z,28.17
2019-05-22T03:27:50.197Z,29.37
2019-05-22T03:30:32.630Z,33.43
2019-05-22T03:33:05.028Z,25.83
2019-05-22T03:35:46.089Z,28.70
2019-05-22T03:38:16.133Z,27.70
2019-05-22T03:40:45.848Z,28.00
2019-05-22T03:43:22.663Z,28.80
2019-05-22T03:45:52.028Z,27.23
2019-05-22T03:48:22.552Z,23.07
2019-05-22T03:50:54.523Z,21.77
2019-05-22T03:53:26.292Z,26.60
2019-05-22T03:55:55.758Z,24.30
2019-05-22T03:58:24.732Z,30.50
2019-05-22T04:00:55.786Z,26.23
2019-05-22T04:03:26.248Z,24.73
2019-05-22T04:05:55.978Z,31.87
2019-05-22T04:08:26.435Z,26.17
2019-05-22T04:11:01.993Z,31.20
2019-05-22T04:13:32.261Z,33.50
2019-05-22T04:16:04.435Z,30.53
2019-05-22T04:18:33.041Z,27.80
2019-05-22T04:21:03.227Z,31.60
2019-05-22T04:23:32.239Z,28.87
2019-05-22T04:26:01.717Z,27.50
2019-05-22T04:28:31.165Z,24.13
2019-05-22T04:31:03.112Z,26.63
2019-05-22T04:33:31.743Z,25.73
2019-05-22T04:36:01.880Z,24.47
2019-05-22T04:38:31.531Z,25.50
2019-05-22T04:41:01.547Z,24.20
2019-05-22T04:43:32.499Z,22.13
2019-05-22T04:46:01.403Z,22.87
2019-05-22T04:48:31.354Z,26.07
2019-05-22T04:51:04.567Z,22.97
2019-05-22T04:53:34.308Z,22.17
2019-05-22T04:56:03.381Z,23.10
2019-05-22T04:58:31.929Z,23.50
2019-05-22T05:01:00.472Z,26.20
2019-05-22T05:03:29.303Z,28.67
2019-05-22T05:05:58.897Z,24.50
2019-05-22T05:08:27.519Z,28.83
2019-05-22T05:10:56.047Z,26.07
2019-05-22T05:13:26.491Z,24.30
2019-05-22T05:15:54.956Z,24.17
2019-05-22T05:18:23.496Z,27.23
2019-05-22T05:20:52.109Z,24.63
2019-05-22T05:23:21.395Z,27.73
2019-05-22T05:25:50.544Z,24.33
2019-05-22T05:28:19.296Z,21.93
2019-05-22T05:30:48.027Z,27.50
2019-05-22T05:33:16.711Z,26.10
2019-05-22T05:35:45.326Z,29.50
2019-05-22T05:38:15.859Z,25.53
2019-05-22T05:40:45.390Z,25.40
2019-05-22T05:43:15.557Z,23.40
2019-05-22T05:45:47.123Z,26.47
2019-05-22T05:48:21.015Z,24.57
2019-05-22T05:51:08.630Z,21.93
2019-05-22T05:53:55.312Z,19.80
2019-05-22T05:56:25.601Z,21.20
2019-05-22T05:58:54.947Z,21.63
2019-05-22T06:01:25.644Z,22.47
2019-05-22T06:03:54.475Z,18.83
2019-05-22T06:06:27.117Z,21.13
2019-05-22T06:09:00.007Z,18.87
2019-05-22T06:11:35.727Z,23.97
2019-05-22T06:14:06.222Z,20.13
2019-05-22T06:16:57.172Z,18.47
2019-05-22T06:19:28.467Z,17.27
2019-05-22T06:21:59.235Z,19.17
2019-05-22T06:24:40.236Z,25.33
2019-05-22T06:27:15.148Z,15.90
2019-05-22T06:30:05.074Z,17.47
2019-05-22T06:32:55.623Z,20.80
2019-05-22T06:35:26.125Z,12.53
2019-05-22T06:38:03.826Z,15.90
2019-05-22T06:40:33.290Z,14.63
2019-05-22T06:43:25.004Z,16.77
2019-05-22T06:45:55.606Z,14.67
2019-05-22T06:48:24.335Z,16.10
2019-05-22T06:50:52.935Z,18.00
2019-05-22T06:53:21.590Z,14.53
2019-05-22T06:55:50.819Z,15.63
2019-05-22T06:58:19.633Z,18.33
2019-05-22T07:00:49.038Z,18.87
2019-05-22T07:03:17.793Z,16.67
2019-05-22T07:05:46.642Z,14.67
2019-05-22T07:08:17.717Z,13.27
2019-05-22T07:10:46.450Z,15.27
2019-05-22T07:13:14.896Z,19.33
2019-05-22T07:15:44.004Z,19.27
2019-05-22T07:18:15.296Z,13.97
2019-05-22T07:20:46.579Z,14.93
2019-05-22T07:23:18.931Z,15.07
2019-05-22T07:25:49.151Z,13.37
2019-05-22T07:28:19.465Z,15.60
2019-05-22T07:30:48.791Z,15.13
2019-05-22T07:33:18.763Z,17.03
2019-05-22T07:36:07.673Z,14.77
2019-05-22T07:38:19.572Z,14.20
2019-05-22T07:40:50.461Z,17.07
2019-05-22T07:43:20.358Z,12.87
2019-05-22T07:45:49.511Z,17.20
2019-05-22T07:48:18.743Z,15.93
2019-05-22T07:50:49.661Z,16.10
2019-05-22T07:53:18.389Z,13.37
2019-05-22T07:55:48.984Z,14.63
2019-05-22T07:58:18.442Z,13.77
2019-05-22T08:00:50.814Z,16.10
2019-05-22T08:03:21.542Z,14.63
2019-05-22T08:05:54.954Z,13.17
2019-05-22T08:08:25.038Z,16.03
2019-05-22T08:10:55.304Z,14.07
2019-05-22T08:13:24.551Z,13.23
2019-05-22T08:15:53.111Z,17.70
2019-05-22T08:18:22.408Z,11.53
2019-05-22T08:20:51.151Z,15.57
2019-05-22T08:23:19.788Z,15.60
2019-05-22T08:25:48.511Z,17.00
2019-05-22T08:28:19.897Z,16.33
2019-05-22T08:30:49.299Z,16.80
2019-05-22T08:33:19.922Z,14.27
2019-05-22T08:35:48.563Z,20.77
2019-05-22T08:38:18.724Z,18.60
2019-05-22T08:40:48.915Z,15.97
2019-05-22T08:43:18.303Z,17.17
2019-05-22T08:45:47.695Z,16.37
2019-05-22T08:48:17.512Z,14.93
2019-05-22T08:50:47.298Z,15.37
2019-05-22T08:53:16.550Z,15.80
2019-05-22T08:55:45.341Z,15.20
2019-05-22T08:58:15.731Z,14.97
2019-05-22T09:00:45.237Z,13.10
2019-05-22T09:03:14.805Z,31.47
2019-05-22T09:05:44.881Z,14.10
2019-05-22T09:08:13.490Z,17.13
2019-05-22T09:10:42.415Z,12.00
2019-05-22T09:13:11.009Z,18.63
2019-05-22T09:15:40.716Z,18.17
2019-05-22T09:18:09.294Z,17.27
2019-05-22T09:20:48.960Z,25.67
2019-05-22T09:23:09.762Z,26.23
2019-05-22T09:25:38.383Z,18.03
2019-05-22T09:28:07.427Z,19.83
2019-05-22T09:30:36.008Z,22.93
2019-05-22T09:33:04.543Z,22.33
2019-05-22T09:35:33.098Z,22.53
2019-05-22T09:38:01.799Z,18.00
2019-05-22T09:40:31.603Z,19.90
2019-05-22T09:43:01.988Z,18.37
2019-05-22T09:45:31.045Z,24.73
2019-05-22T09:47:59.691Z,22.70
2019-05-22T09:50:29.122Z,25.57
2019-05-22T09:52:58.431Z,23.70
2019-05-22T09:55:27.127Z,24.70
2019-05-22T09:57:55.781Z,25.43
2019-05-22T10:00:25.084Z,23.57
2019-05-22T10:02:53.849Z,21.10
2019-05-22T10:05:22.618Z,22.30
2019-05-22T10:08:00.647Z,19.57
2019-05-22T10:10:22.561Z,23.20
2019-05-22T10:12:51.539Z,19.23
2019-05-22T10:15:21.126Z,23.20
2019-05-22T10:17:50.084Z,15.53
2019-05-22T10:20:20.559Z,18.90
2019-05-22T10:22:49.475Z,13.53
2019-05-22T10:25:18.449Z,16.30
2019-05-22T10:27:47.928Z,21.30
2019-05-22T10:30:20.869Z,19.80
2019-05-22T10:32:49.957Z,19.60
2019-05-22T10:35:22.944Z,19.20
2019-05-22T10:37:52.237Z,16.30
2019-05-22T10:40:25.169Z,14.97
2019-05-22T10:42:54.101Z,13.73
2019-05-22T10:45:22.698Z,14.20
2019-05-22T10:47:51.164Z,14.20
2019-05-22T10:50:20.606Z,16.67
2019-05-22T10:52:53.951Z,14.80
2019-05-22T10:55:21.407Z,16.33
2019-05-22T10:57:49.894Z,18.17
2019-05-22T11:00:20.829Z,15.20
2019-05-22T11:02:49.566Z,14.83
2019-05-22T11:05:20.752Z,15.60
2019-05-22T11:07:50.436Z,18.13
2019-05-22T11:10:21.039Z,11.53
2019-05-22T11:12:50.705Z,13.57
2019-05-22T11:15:19.617Z,11.33
2019-05-22T11:17:48.301Z,14.93
2019-05-22T11:20:17.241Z,16.67
2019-05-22T11:22:45.771Z,14.30
2019-05-22T11:25:15.927Z,10.43
2019-05-22T11:27:45.398Z,8.90
2019-05-22T11:30:16.567Z,10.97
2019-05-22T11:32:45.964Z,11.43
2019-05-22T11:35:15.717Z,9.27
2019-05-22T11:37:44.242Z,10.47
2019-05-22T11:40:14.592Z,5.57
2019-05-22T11:42:43.208Z,8.03
2019-05-22T11:45:13.149Z,8.33
2019-05-22T11:47:42.046Z,8.67
2019-05-22T11:50:12.698Z,10.17
2019-05-22T11:52:42.138Z,12.77
2019-05-22T11:55:14.339Z,13.50
2019-05-22T11:57:43.688Z,12.67
2019-05-22T12:00:14.589Z,15.53
2019-05-22T12:02:45.178Z,10.43
2019-05-22T12:05:15.420Z,10.57
2019-05-22T12:07:44.606Z,9.43
2019-05-22T12:10:14.760Z,12.37
2019-05-22T12:12:44.664Z,9.40
2019-05-22T12:15:15.019Z,16.33
2019-05-22T12:17:43.940Z,10.80
2019-05-22T12:20:14.735Z,10.57
2019-05-22T12:22:43.656Z,11.30
2019-05-22T12:25:13.742Z,10.83
2019-05-22T12:27:42.376Z,13.03
2019-05-22T12:30:12.138Z,5.90
2019-05-22T12:32:41.879Z,9.60
2019-05-22T12:35:12.154Z,9.80
2019-05-22T12:37:41.655Z,5.97
2019-05-22T12:40:13.177Z,5.83
2019-05-22T12:42:41.852Z,9.83
2019-05-22T12:45:12.819Z,8.97
2019-05-22T12:47:43.044Z,8.03
2019-05-22T12:50:15.536Z,9.43
2019-05-22T12:52:47.297Z,9.90
2019-05-22T12:55:41.460Z,7.13
2019-05-22T12:58:10.951Z,8.10
2019-05-22T13:00:39.990Z,6.70
2019-05-22T13:03:09.209Z,7.73
2019-05-22T13:05:39.446Z,9.07
2019-05-22T13:08:09.365Z,7.77
2019-05-22T13:10:38.989Z,8.10
2019-05-22T13:13:07.859Z,7.23
2019-05-22T13:15:37.766Z,6.67
2019-05-22T13:18:08.249Z,7.27
2019-05-22T13:20:42.914Z,5.97
2019-05-22T13:23:10.964Z,7.40
2019-05-22T13:25:41.308Z,7.77
2019-05-22T13:28:12.351Z,6.23
2019-05-22T13:30:42.866Z,5.77
2019-05-22T13:33:15.999Z,7.40
2019-05-22T13:35:45.594Z,6.47
2019-05-22T13:38:14.293Z,8.03
2019-05-22T13:40:44.388Z,9.10
2019-05-22T13:43:13.180Z,5.40
2019-05-22T13:45:42.196Z,8.03
2019-05-22T13:48:11.356Z,5.57
2019-05-22T13:50:40.423Z,6.57
2019-05-22T13:53:10.807Z,6.17
2019-05-22T13:55:39.718Z,5.00
2019-05-22T13:58:09.018Z,8.77
2019-05-22T14:00:38.572Z,9.07
2019-05-22T14:03:07.097Z,9.90
2019-05-22T14:05:36.530Z,6.03
2019-05-22T14:08:06.171Z,8.77
2019-05-22T14:10:35.255Z,4.93
2019-05-22T14:13:04.730Z,5.77
2019-05-22T14:15:48.903Z,5.53
2019-05-22T14:18:03.791Z,9.13
2019-05-22T14:20:32.526Z,5.40
2019-05-22T14:23:01.093Z,5.80
2019-05-22T14:25:30.652Z,6.03
2019-05-22T14:27:59.455Z,5.60
2019-05-22T14:30:29.493Z,5.33
2019-05-22T14:33:03.848Z,6.93
2019-05-22T14:35:46.868Z,5.70
2019-05-22T14:38:01.820Z,8.17
2019-05-22T14:40:32.409Z,8.57
2019-05-22T14:43:01.374Z,7.03
2019-05-22T14:45:30.537Z,10.70
2019-05-22T14:47:59.055Z,7.83
2019-05-22T14:50:32.693Z,6.80
2019-05-22T14:53:00.042Z,6.03
2019-05-22T14:55:29.972Z,7.07
2019-05-22T14:57:58.680Z,6.80
2019-05-22T15:00:27.970Z,9.67
2019-05-22T15:02:58.856Z,6.87
2019-05-22T15:05:26.976Z,8.63
2019-05-22T15:07:55.488Z,7.60
2019-05-22T15:10:26.766Z,5.50
2019-05-22T15:12:56.167Z,7.97
2019-05-22T15:15:25.263Z,9.40
2019-05-22T15:17:53.893Z,8.93
2019-05-22T15:20:26.678Z,9.07
2019-05-22T15:22:56.515Z,11.17
2019-05-22T15:25:26.863Z,7.67
2019-05-22T15:27:55.455Z,3.37
2019-05-22T15:30:24.451Z,7.40
2019-05-22T15:32:53.311Z,8.43
2019-05-22T15:35:22.356Z,6.20
2019-05-22T15:37:51.080Z,6.30
2019-05-22T15:40:20.163Z,8.37
2019-05-22T15:42:48.908Z,4.67
2019-05-22T15:45:23.532Z,7.63
2019-05-22T15:47:56.536Z,14.20
2019-05-22T15:50:30.347Z,5.77
2019-05-22T15:53:03.906Z,8.87
2019-05-22T15:55:34.102Z,5.83
2019-05-22T15:58:05.299Z,5.00
2019-05-22T16:00:36.627Z,8.20
2019-05-22T16:03:17.716Z,5.53
2019-05-22T16:05:48.128Z,6.47
2019-05-22T16:08:17.391Z,8.17
2019-05-22T16:10:47.423Z,7.30
2019-05-22T16:13:24.041Z,7.90
2019-05-22T16:15:55.658Z,6.63
2019-05-22T16:18:29.369Z,6.10
2019-05-22T16:21:01.692Z,5.23
2019-05-22T16:23:33.379Z,10.63
2019-05-22T16:26:04.517Z,5.13
2019-05-22T16:28:36.417Z,8.73
2019-05-22T16:31:08.396Z,7.70
2019-05-22T16:33:38.941Z,6.27
2019-05-22T16:36:07.800Z,11.17
2019-05-22T16:38:38.107Z,5.47
2019-05-22T16:41:07.603Z,4.87
2019-05-22T16:43:49.039Z,7.47
2019-05-22T16:46:10.283Z,8.37
2019-05-22T16:48:39.896Z,7.90
2019-05-22T16:51:09.890Z,5.73
2019-05-22T16:53:39.851Z,6.13
2019-05-22T16:56:08.629Z,10.13
2019-05-22T16:58:37.635Z,10.50
2019-05-22T17:01:09.157Z,4.20
2019-05-22T17:03:38.335Z,9.37
2019-05-22T17:06:07.219Z,6.70
2019-05-22T17:08:37.140Z,11.70
2019-05-22T17:11:07.329Z,10.80
2019-05-22T17:13:37.012Z,9.50
2019-05-22T17:16:07.239Z,5.67
2019-05-22T17:18:46.716Z,6.57
2019-05-22T17:21:06.931Z,5.87
2019-05-22T17:23:35.640Z,11.30
2019-05-22T17:26:05.226Z,6.30
2019-05-22T17:28:34.497Z,4.90
2019-05-22T17:31:03.788Z,10.83
2019-05-22T17:33:34.005Z,7.13
2019-05-22T17:36:05.703Z,9.33
2019-05-22T17:38:35.186Z,7.33
2019-05-22T17:41:04.704Z,7.70
2019-05-22T17:43:34.139Z,9.07
2019-05-22T17:46:04.790Z,8.20
2019-05-22T17:48:33.722Z,5.57
2019-05-22T17:51:02.707Z,11.70
2019-05-22T17:53:31.325Z,7.27
2019-05-22T17:55:59.884Z,4.27
2019-05-22T17:58:30.165Z,11.43
2019-05-22T18:00:59.133Z,5.40
2019-05-22T18:03:28.176Z,8.40
2019-05-22T18:05:57.327Z,9.03
2019-05-22T18:08:26.320Z,4.73
2019-05-22T18:10:55.371Z,7.87
2019-05-22T18:13:23.824Z,5.80
2019-05-22T18:15:52.456Z,10.13
2019-05-22T18:18:21.096Z,10.63
2019-05-22T18:20:49.883Z,7.07
2019-05-22T18:23:18.924Z,7.83
2019-05-22T18:25:47.571Z,8.13
2019-05-22T18:28:16.191Z,8.83
2019-05-22T18:30:44.766Z,7.37
2019-05-22T18:33:15.392Z,9.20
2019-05-22T18:35:43.918Z,10.23
2019-05-22T18:38:12.486Z,8.90
2019-05-22T18:40:41.114Z,7.47
2019-05-22T18:43:10.042Z,7.87
2019-05-22T18:45:39.222Z,9.13
2019-05-22T18:48:08.482Z,8.20
2019-05-22T18:50:37.377Z,5.37
2019-05-22T18:53:06.406Z,8.27
2019-05-22T18:55:34.923Z,7.33
2019-05-22T18:58:03.385Z,9.13
2019-05-22T19:00:33.687Z,4.90
2019-05-22T19:03:02.630Z,9.50
2019-05-22T19:05:32.742Z,6.10
2019-05-22T19:08:01.850Z,7.20
2019-05-22T19:10:31.283Z,8.63
2019-05-22T19:13:00.304Z,8.87
2019-05-22T19:15:29.906Z,7.20
2019-05-22T19:17:58.596Z,9.63
2019-05-22T19:20:27.276Z,8.83
2019-05-22T19:23:00.715Z,9.30
2019-05-22T19:25:26.255Z,7.77
2019-05-22T19:27:55.603Z,9.03
2019-05-22T19:30:24.686Z,6.30
2019-05-22T19:32:53.310Z,6.70
2019-05-22T19:35:21.854Z,9.87
2019-05-22T19:37:51.155Z,12.07
2019-05-22T19:40:19.948Z,7.13
2019-05-22T19:42:48.766Z,12.13
2019-05-22T19:45:19.128Z,6.83
2019-05-22T19:47:52.842Z,11.17
2019-05-22T19:50:23.870Z,6.40
2019-05-22T19:52:53.825Z,6.77
2019-05-22T19:55:24.023Z,6.93
2019-05-22T19:57:53.116Z,16.33
2019-05-22T20:00:24.536Z,6.90
2019-05-22T20:02:54.374Z,9.60
2019-05-22T20:05:24.029Z,8.93
2019-05-22T20:07:53.344Z,6.57
2019-05-22T20:10:22.392Z,8.53
2019-05-22T20:12:50.877Z,6.93
2019-05-22T20:15:19.843Z,10.70
2019-05-22T20:17:48.459Z,8.87
2019-05-22T20:20:19.551Z,10.20
2019-05-22T20:22:48.106Z,8.93
2019-05-22T20:25:19.326Z,5.17
2019-05-22T20:27:48.027Z,8.00
2019-05-22T20:30:20.115Z,6.70
2019-05-22T20:32:49.302Z,6.07
2019-05-22T20:35:18.806Z,10.87
2019-05-22T20:37:47.951Z,6.87
2019-05-22T20:40:19.261Z,10.70
2019-05-22T20:42:48.042Z,6.10
2019-05-22T20:45:21.047Z,8.63
2019-05-22T20:47:54.331Z,11.47
2019-05-22T20:50:27.007Z,8.87
2019-05-22T20:52:55.615Z,9.53
2019-05-22T20:55:24.134Z,6.00
2019-05-22T20:57:53.082Z,9.17
2019-05-22T21:00:23.233Z,5.17
2019-05-22T21:02:54.866Z,11.47
2019-05-22T21:05:25.413Z,12.97
2019-05-22T21:07:57.368Z,12.67
2019-05-22T21:10:27.024Z,8.93
2019-05-22T21:12:57.610Z,9.83
2019-05-22T21:15:27.779Z,7.97
2019-05-22T21:17:56.463Z,10.63
2019-05-22T21:20:26.902Z,7.93
2019-05-22T21:22:55.494Z,9.83
2019-05-22T21:25:24.949Z,10.00
2019-05-22T21:27:53.980Z,9.67
2019-05-22T21:30:24.195Z,11.03
2019-05-22T21:32:52.897Z,9.83
2019-05-22T21:35:22.652Z,12.47
2019-05-22T21:37:51.132Z,8.50
2019-05-22T21:40:22.280Z,11.45
2019-05-22T21:42:52.643Z,9.93
2019-05-22T21:45:21.532Z,8.67
2019-05-22T21:47:50.503Z,10.53
2019-05-22T21:50:19.852Z,9.13
2019-05-22T21:52:48.386Z,13.63
2019-05-22T21:55:19.233Z,16.43
2019-05-22T21:57:47.744Z,11.07
2019-05-22T22:00:36.127Z,10.87
2019-05-22T22:03:05.996Z,10.40
2019-05-22T22:05:34.519Z,11.17
2019-05-22T22:08:03.097Z,10.47
2019-05-22T22:10:31.793Z,7.50
2019-05-22T22:13:01.603Z,11.90
2019-05-22T22:15:31.589Z,8.70
2019-05-22T22:18:00.260Z,10.10
2019-05-22T22:20:29.100Z,9.20
2019-05-22T22:22:57.723Z,9.90
2019-05-22T22:25:26.263Z,11.57
2019-05-22T22:27:54.988Z,7.60
2019-05-22T22:30:25.104Z,7.57
2019-05-22T22:32:55.693Z,12.33
2019-05-22T22:35:25.195Z,9.93
2019-05-22T22:37:54.960Z,8.87
2019-05-22T22:40:27.223Z,11.20
2019-05-22T22:42:55.858Z,12.57
2019-05-22T22:45:41.657Z,9.63
2019-05-22T22:48:11.883Z,9.77
2019-05-22T22:50:41.199Z,9.27
2019-05-22T22:53:10.681Z,9.77
2019-05-22T22:55:40.324Z,8.83
2019-05-22T22:58:17.072Z,10.83
2019-05-22T23:00:45.963Z,13.40
2019-05-22T23:17:11.140Z,11.73
2019-05-22T23:19:42.562Z,11.23
2019-05-22T23:22:19.588Z,12.47
2019-05-22T23:24:49.351Z,18.30
2019-05-22T23:27:19.425Z,10.23
2019-05-22T23:29:49.007Z,11.47
2019-05-22T23:32:18.559Z,10.40
2019-05-22T23:34:48.274Z,12.00
2019-05-22T23:37:21.683Z,11.70
2019-05-22T23:39:53.086Z,12.33
2019-05-22T23:42:25.692Z,12.00
2019-05-22T23:44:57.064Z,9.30
2019-05-22T23:47:26.032Z,9.47
2019-05-22T23:49:54.523Z,10.00
2019-05-22T23:52:24.020Z,11.83
2019-05-22T23:54:53.914Z,10.33
2019-05-22T23:57:24.238Z,13.03
2019-05-22T23:59:54.366Z,10.80
